NATURA VA

 METAR AND TAF INFORMATION
METAR FOR DAAE
ADDS - METARS form results

(1902 UTC 18 February 2019)
Data provider http://aviationweather.gov/metar/data/
 
Forecast for: DAAE (BEJAIA/SOUMMAM , DZ)
Text: TAF DAAE 181700Z 1818/1918 12008KT CAVOK
Forecast period: 1800 UTC 18 February 2019 to 1800 UTC 19 February 2019
Forecast type: FROM: standard forecast or significant change
Winds: from the ESE (120 degrees) at 9 MPH (8 knots; 4.1 m/s)
Visibility: 6 or more miles 10+ km)
Ceiling: unknown
Clouds: missing
Weather: NSW  (no significant weather)

 AIRPORT MAP

 RUNWAY INFORMATION
Runway 08 Runway length 7874 ft Runway width 148 ft
Runway elevation 20 ft Runway displaced threshold 0 ft Runway heading 80
Runway 26 Runway length 7874 ft Runway width 148 ft
Runway elevation 10 ft Runway displaced threshold 0 ft Runway heading 260

 AIRPORT FREQUENCIES
Type TWR Name BEJAIA TWR Frequency 118.9 MHZ

 AIRPORT NEAR NAVIGATION AIDS
Type NDB Name Bejaia Frequency 423 KHZ



Powered by Virtual Airlines Manager [v2.6.2]